CSCLB MBPV-KFXE
Flight info
| Callsign | CSCLB |
|---|---|
| Flight time | 1h 42m |
| Altitude | 40000 |
| Route | ZQA OLAHS3 |
| Aircraft | CL60/M-SBDE1E2E3FGHIJ1J4J5J7M3RWXYZ/LB1V1D1 |
Departure
| Time | 2026-05-05 19:59 |
|---|---|
| Airport | Providenciales International Airport (MBPV) |
Arrival
| Time | 2026-05-05 21:42 |
|---|---|
| Airport | Fort Lauderdale Executive Airport (KFXE) |
| Time | Latitude | Longitude | Altitude | Speed | Heading |
|---|---|---|---|---|---|
| 2026-05-05 19:35 | 21.77126 | -72.27328 | 34 ft | 0 kts | 184° |
| 2026-05-05 19:55 | 21.77124 | -72.27328 | 34 ft | 4 kts | 184° |
| 2026-05-05 19:55 | 21.77091 | -72.27278 | 33 ft | 10 kts | 93° |
| 2026-05-05 19:56 | 21.77129 | -72.27216 | 33 ft | 13 kts | 3° |
| 2026-05-05 19:56 | 21.77235 | -72.27212 | 33 ft | 16 kts | 2° |
| 2026-05-05 19:56 | 21.77347 | -72.27205 | 33 ft | 15 kts | 2° |
| 2026-05-05 19:56 | 21.77392 | -72.27279 | 34 ft | 14 kts | 276° |
| 2026-05-05 19:57 | 21.77397 | -72.27417 | 35 ft | 20 kts | 273° |
| 2026-05-05 19:57 | 21.77409 | -72.27600 | 37 ft | 26 kts | 272° |
| 2026-05-05 19:57 | 21.77418 | -72.27801 | 39 ft | 27 kts | 274° |
| 2026-05-05 19:57 | 21.77427 | -72.28002 | 42 ft | 25 kts | 276° |
| 2026-05-05 19:58 | 21.77446 | -72.28137 | 43 ft | 14 kts | 308° |
| 2026-05-05 19:58 | 21.77456 | -72.28208 | 44 ft | 10 kts | 188° |
| 2026-05-05 19:58 | 21.77437 | -72.28175 | 44 ft | 0 kts | 89° |
| 2026-05-05 19:59 | 21.77424 | -72.27887 | 40 ft | 90 kts | 94° |
| 2026-05-05 19:59 | 21.77368 | -72.26900 | 281 ft | 156 kts | 91° |
| 2026-05-05 19:59 | 21.77241 | -72.25679 | 1055 ft | 179 kts | 107° |
| 2026-05-05 20:00 | 21.76985 | -72.24316 | 1960 ft | 205 kts | 97° |
| 2026-05-05 20:00 | 21.76799 | -72.22774 | 2799 ft | 210 kts | 94° |
| 2026-05-05 20:00 | 21.76690 | -72.21181 | 3441 ft | 213 kts | 89° |
| 2026-05-05 20:00 | 21.76750 | -72.19618 | 4081 ft | 213 kts | 77° |
| 2026-05-05 20:01 | 21.77414 | -72.18193 | 4526 ft | 215 kts | 45° |
| 2026-05-05 20:01 | 21.78670 | -72.17339 | 5260 ft | 214 kts | 15° |
| 2026-05-05 20:01 | 21.80222 | -72.17167 | 5907 ft | 228 kts | 359° |
| 2026-05-05 20:01 | 21.81817 | -72.17167 | 7089 ft | 231 kts | 0° |
| 2026-05-05 20:02 | 21.83513 | -72.17198 | 7900 ft | 254 kts | 358° |
| 2026-05-05 20:02 | 21.85422 | -72.17248 | 8522 ft | 284 kts | 359° |
| 2026-05-05 20:02 | 21.87465 | -72.17310 | 9123 ft | 296 kts | 354° |
| 2026-05-05 20:02 | 21.89526 | -72.17545 | 9730 ft | 299 kts | 351° |
| 2026-05-05 20:03 | 21.91622 | -72.17816 | 10364 ft | 303 kts | 351° |
| 2026-05-05 20:03 | 21.93836 | -72.18096 | 11005 ft | 325 kts | 351° |
| 2026-05-05 20:03 | 21.96182 | -72.18395 | 11606 ft | 339 kts | 349° |
| 2026-05-05 20:03 | 21.98440 | -72.19105 | 12246 ft | 339 kts | 331° |
| 2026-05-05 20:04 | 22.00330 | -72.20579 | 12856 ft | 336 kts | 311° |
| 2026-05-05 20:04 | 22.01694 | -72.22671 | 13457 ft | 335 kts | 297° |
| 2026-05-05 20:04 | 22.02843 | -72.24887 | 14100 ft | 336 kts | 297° |
| 2026-05-05 20:04 | 22.03984 | -72.27077 | 14722 ft | 338 kts | 297° |
| 2026-05-05 20:05 | 22.05135 | -72.29281 | 15329 ft | 339 kts | 297° |
| 2026-05-05 20:05 | 22.06298 | -72.31506 | 15961 ft | 341 kts | 297° |
| 2026-05-05 20:05 | 22.07463 | -72.33736 | 16588 ft | 344 kts | 297° |
| 2026-05-05 20:05 | 22.08639 | -72.35987 | 17218 ft | 347 kts | 297° |
| 2026-05-05 20:06 | 22.09823 | -72.38252 | 17851 ft | 349 kts | 297° |
| 2026-05-05 20:06 | 22.11021 | -72.40546 | 18477 ft | 351 kts | 297° |
| 2026-05-05 20:06 | 22.12224 | -72.42848 | 19117 ft | 353 kts | 297° |
| 2026-05-05 20:06 | 22.13481 | -72.45127 | 19739 ft | 356 kts | 300° |
| 2026-05-05 20:07 | 22.14831 | -72.47360 | 20383 ft | 357 kts | 301° |
| 2026-05-05 20:07 | 22.16195 | -72.49612 | 20998 ft | 360 kts | 301° |
| 2026-05-05 20:07 | 22.17567 | -72.51879 | 21629 ft | 363 kts | 301° |
| 2026-05-05 20:07 | 22.18972 | -72.54202 | 22301 ft | 368 kts | 301° |
| 2026-05-05 20:08 | 22.20389 | -72.56542 | 23097 ft | 369 kts | 301° |
| 2026-05-05 20:08 | 22.21822 | -72.58912 | 23932 ft | 370 kts | 301° |
| 2026-05-05 20:08 | 22.23241 | -72.61258 | 24663 ft | 372 kts | 301° |
| 2026-05-05 20:08 | 22.24662 | -72.63607 | 25323 ft | 376 kts | 301° |
| 2026-05-05 20:09 | 22.26108 | -72.65999 | 25957 ft | 380 kts | 301° |
| 2026-05-05 20:09 | 22.27575 | -72.68427 | 26619 ft | 382 kts | 300° |
| 2026-05-05 20:09 | 22.29046 | -72.70863 | 27246 ft | 385 kts | 300° |
| 2026-05-05 20:09 | 22.30510 | -72.73287 | 27859 ft | 387 kts | 300° |
| 2026-05-05 20:10 | 22.31993 | -72.75744 | 28394 ft | 391 kts | 300° |
| 2026-05-05 20:10 | 22.33491 | -72.78227 | 28900 ft | 394 kts | 300° |
| 2026-05-05 20:10 | 22.34999 | -72.80727 | 29425 ft | 397 kts | 300° |
| 2026-05-05 20:10 | 22.36525 | -72.83255 | 29978 ft | 399 kts | 301° |
| 2026-05-05 20:11 | 22.38071 | -72.85821 | 30439 ft | 403 kts | 301° |
| 2026-05-05 20:11 | 22.39607 | -72.88371 | 30920 ft | 405 kts | 301° |
| 2026-05-05 20:11 | 22.41167 | -72.90962 | 31369 ft | 407 kts | 301° |
| 2026-05-05 20:11 | 22.42718 | -72.93537 | 31783 ft | 410 kts | 302° |
| 2026-05-05 20:12 | 22.44274 | -72.96125 | 32165 ft | 412 kts | 302° |
| 2026-05-05 20:12 | 22.45845 | -72.98737 | 32524 ft | 414 kts | 302° |
| 2026-05-05 20:12 | 22.47422 | -73.01359 | 32916 ft | 415 kts | 302° |
| 2026-05-05 20:12 | 22.48992 | -73.03972 | 33414 ft | 414 kts | 303° |
| 2026-05-05 20:13 | 22.50549 | -73.06564 | 33988 ft | 411 kts | 303° |
| 2026-05-05 20:13 | 22.52093 | -73.09137 | 34554 ft | 407 kts | 303° |
| 2026-05-05 20:13 | 22.53646 | -73.11724 | 35119 ft | 404 kts | 303° |
| 2026-05-05 20:13 | 22.55191 | -73.14300 | 35660 ft | 401 kts | 303° |
| 2026-05-05 20:14 | 22.56723 | -73.16856 | 36093 ft | 400 kts | 303° |
| 2026-05-05 20:14 | 22.58262 | -73.19423 | 36527 ft | 398 kts | 303° |
| 2026-05-05 20:14 | 22.59801 | -73.21993 | 36856 ft | 399 kts | 303° |
| 2026-05-05 20:14 | 22.61338 | -73.24560 | 37181 ft | 399 kts | 303° |
| 2026-05-05 20:15 | 22.62867 | -73.27116 | 37562 ft | 398 kts | 303° |
| 2026-05-05 20:15 | 22.64403 | -73.29683 | 37911 ft | 396 kts | 303° |
| 2026-05-05 20:15 | 22.65926 | -73.32231 | 38220 ft | 396 kts | 303° |
| 2026-05-05 20:15 | 22.67419 | -73.34730 | 38516 ft | 395 kts | 303° |
| 2026-05-05 20:16 | 22.68905 | -73.37219 | 38828 ft | 394 kts | 304° |
| 2026-05-05 20:16 | 22.70429 | -73.39772 | 39122 ft | 393 kts | 304° |
| 2026-05-05 20:16 | 22.71947 | -73.42316 | 39390 ft | 393 kts | 303° |
| 2026-05-05 20:16 | 22.73463 | -73.44859 | 39684 ft | 392 kts | 303° |
| 2026-05-05 20:17 | 22.74967 | -73.47383 | 39891 ft | 392 kts | 303° |
| 2026-05-05 20:17 | 22.76470 | -73.49905 | 40020 ft | 394 kts | 303° |
| 2026-05-05 20:17 | 22.77982 | -73.52446 | 40012 ft | 397 kts | 303° |
| 2026-05-05 20:18 | 22.81051 | -73.57605 | 40022 ft | 402 kts | 303° |
| 2026-05-05 20:18 | 22.84154 | -73.62828 | 40026 ft | 404 kts | 303° |
| 2026-05-05 20:19 | 22.87194 | -73.67949 | 40032 ft | 404 kts | 303° |
| 2026-05-05 20:19 | 22.90287 | -73.73167 | 40025 ft | 401 kts | 303° |
| 2026-05-05 20:20 | 22.93349 | -73.78336 | 40030 ft | 400 kts | 304° |
| 2026-05-05 20:20 | 22.96398 | -73.83486 | 40024 ft | 398 kts | 304° |
| 2026-05-05 20:21 | 22.99441 | -73.88631 | 40029 ft | 398 kts | 304° |
| 2026-05-05 20:21 | 23.02478 | -73.93773 | 40031 ft | 397 kts | 304° |
| 2026-05-05 20:22 | 23.05454 | -73.98815 | 40028 ft | 396 kts | 304° |
| 2026-05-05 20:22 | 23.08480 | -74.03948 | 40026 ft | 395 kts | 304° |
| 2026-05-05 20:23 | 23.11476 | -74.09037 | 40027 ft | 394 kts | 304° |
| 2026-05-05 20:23 | 23.14484 | -74.14150 | 40034 ft | 393 kts | 304° |
| 2026-05-05 20:24 | 23.17477 | -74.19243 | 40016 ft | 393 kts | 304° |
| 2026-05-05 20:24 | 23.20444 | -74.24299 | 40014 ft | 393 kts | 304° |
| 2026-05-05 20:25 | 23.23376 | -74.29298 | 40015 ft | 392 kts | 304° |
| 2026-05-05 20:25 | 23.26327 | -74.34334 | 40017 ft | 392 kts | 305° |
| 2026-05-05 20:26 | 23.29308 | -74.39427 | 40017 ft | 392 kts | 304° |
| 2026-05-05 20:26 | 23.32254 | -74.44466 | 40014 ft | 391 kts | 304° |
| 2026-05-05 20:27 | 23.35193 | -74.49498 | 40015 ft | 390 kts | 304° |
| 2026-05-05 20:27 | 23.38121 | -74.54513 | 40014 ft | 389 kts | 304° |
| 2026-05-05 20:28 | 23.41021 | -74.59488 | 40012 ft | 389 kts | 304° |
| 2026-05-05 20:28 | 23.43947 | -74.64511 | 40012 ft | 388 kts | 305° |
| 2026-05-05 20:29 | 23.46882 | -74.69553 | 40010 ft | 388 kts | 304° |
| 2026-05-05 20:29 | 23.49778 | -74.74535 | 40012 ft | 388 kts | 304° |
| 2026-05-05 20:30 | 23.52693 | -74.79557 | 40014 ft | 388 kts | 304° |
| 2026-05-05 20:30 | 23.55601 | -74.84571 | 40011 ft | 388 kts | 304° |
| 2026-05-05 20:31 | 23.58472 | -74.89524 | 40008 ft | 387 kts | 304° |
| 2026-05-05 20:31 | 23.61352 | -74.94500 | 40010 ft | 386 kts | 304° |
| 2026-05-05 20:32 | 23.64266 | -74.99537 | 40015 ft | 385 kts | 304° |
| 2026-05-05 20:32 | 23.67117 | -75.04472 | 40009 ft | 384 kts | 304° |
| 2026-05-05 20:33 | 23.69959 | -75.09396 | 40010 ft | 382 kts | 304° |
| 2026-05-05 20:33 | 23.72831 | -75.14377 | 40006 ft | 381 kts | 304° |
| 2026-05-05 20:34 | 23.75652 | -75.19272 | 40009 ft | 382 kts | 305° |
| 2026-05-05 20:34 | 23.78486 | -75.24197 | 40011 ft | 382 kts | 305° |
| 2026-05-05 20:35 | 23.81337 | -75.29156 | 40008 ft | 381 kts | 305° |
| 2026-05-05 20:35 | 23.84154 | -75.34060 | 40008 ft | 381 kts | 305° |
| 2026-05-05 20:36 | 23.86977 | -75.38980 | 40008 ft | 382 kts | 305° |
| 2026-05-05 20:36 | 23.89793 | -75.43892 | 40010 ft | 382 kts | 305° |
| 2026-05-05 20:37 | 23.92611 | -75.48812 | 40011 ft | 382 kts | 304° |
| 2026-05-05 20:37 | 23.95444 | -75.53765 | 40006 ft | 382 kts | 305° |
| 2026-05-05 20:38 | 23.98303 | -75.58768 | 40010 ft | 381 kts | 305° |
| 2026-05-05 20:38 | 24.01135 | -75.63728 | 40005 ft | 381 kts | 304° |
| 2026-05-05 20:39 | 24.03982 | -75.68719 | 40010 ft | 381 kts | 304° |
| 2026-05-05 20:39 | 24.06783 | -75.73639 | 40009 ft | 382 kts | 304° |
| 2026-05-05 20:40 | 24.09581 | -75.78560 | 40009 ft | 381 kts | 304° |
| 2026-05-05 20:40 | 24.12411 | -75.83533 | 40012 ft | 382 kts | 304° |
| 2026-05-05 20:41 | 24.15212 | -75.88478 | 40011 ft | 382 kts | 304° |
| 2026-05-05 20:41 | 24.18011 | -75.93403 | 40008 ft | 381 kts | 304° |
| 2026-05-05 20:42 | 24.20797 | -75.98322 | 40007 ft | 380 kts | 304° |
| 2026-05-05 20:42 | 24.23584 | -76.03238 | 40008 ft | 380 kts | 304° |
| 2026-05-05 20:43 | 24.26373 | -76.08152 | 40006 ft | 380 kts | 304° |
| 2026-05-05 20:43 | 24.29185 | -76.13122 | 40005 ft | 380 kts | 304° |
| 2026-05-05 20:44 | 24.31994 | -76.18111 | 40005 ft | 381 kts | 304° |
| 2026-05-05 20:44 | 24.34791 | -76.23075 | 40008 ft | 381 kts | 304° |
| 2026-05-05 20:45 | 24.38999 | -76.30543 | 40000 ft | 381 kts | 304° |
| 2026-05-05 20:45 | 24.41779 | -76.35473 | 40002 ft | 381 kts | 304° |
| 2026-05-05 20:46 | 24.44561 | -76.40420 | 40004 ft | 381 kts | 304° |
| 2026-05-05 20:46 | 24.47367 | -76.45428 | 40003 ft | 382 kts | 304° |
| 2026-05-05 20:47 | 24.50170 | -76.50411 | 39953 ft | 382 kts | 305° |
| 2026-05-05 20:47 | 24.52960 | -76.55393 | 39987 ft | 382 kts | 304° |
| 2026-05-05 20:48 | 24.55738 | -76.60353 | 39984 ft | 382 kts | 304° |
| 2026-05-05 20:48 | 24.58511 | -76.65311 | 39990 ft | 381 kts | 304° |
| 2026-05-05 20:49 | 24.61281 | -76.70270 | 39988 ft | 382 kts | 304° |
| 2026-05-05 20:49 | 24.64060 | -76.75248 | 39987 ft | 381 kts | 304° |
| 2026-05-05 20:50 | 24.66856 | -76.80263 | 39984 ft | 381 kts | 304° |
| 2026-05-05 20:50 | 24.69619 | -76.85224 | 39990 ft | 381 kts | 304° |
| 2026-05-05 20:51 | 24.72391 | -76.90207 | 39991 ft | 382 kts | 304° |
| 2026-05-05 20:51 | 24.75167 | -76.95201 | 39987 ft | 382 kts | 304° |
| 2026-05-05 20:52 | 24.77938 | -77.00191 | 39992 ft | 382 kts | 304° |
| 2026-05-05 20:52 | 24.80709 | -77.05187 | 39984 ft | 382 kts | 304° |
| 2026-05-05 20:53 | 24.83478 | -77.10183 | 39986 ft | 383 kts | 304° |
| 2026-05-05 20:53 | 24.86245 | -77.15182 | 40004 ft | 383 kts | 304° |
| 2026-05-05 20:54 | 24.89012 | -77.20187 | 39988 ft | 382 kts | 304° |
| 2026-05-05 20:54 | 24.91771 | -77.25181 | 39994 ft | 383 kts | 304° |
| 2026-05-05 20:55 | 24.94546 | -77.30209 | 39995 ft | 383 kts | 304° |
| 2026-05-05 20:55 | 24.97319 | -77.35241 | 39997 ft | 383 kts | 304° |
| 2026-05-05 20:56 | 25.00098 | -77.40287 | 39995 ft | 382 kts | 304° |
| 2026-05-05 20:56 | 25.02782 | -77.45338 | 39995 ft | 384 kts | 299° |
| 2026-05-05 20:57 | 25.04880 | -77.50862 | 39992 ft | 386 kts | 296° |
| 2026-05-05 20:57 | 25.06939 | -77.56390 | 39996 ft | 387 kts | 296° |
| 2026-05-05 20:58 | 25.08995 | -77.61906 | 39987 ft | 386 kts | 297° |
| 2026-05-05 20:58 | 25.11070 | -77.67472 | 39980 ft | 387 kts | 296° |
| 2026-05-05 20:59 | 25.13137 | -77.73024 | 39976 ft | 388 kts | 296° |
| 2026-05-05 20:59 | 25.15187 | -77.78533 | 39414 ft | 388 kts | 296° |
| 2026-05-05 21:00 | 25.16202 | -77.81267 | 38941 ft | 383 kts | 296° |
| 2026-05-05 21:00 | 25.17209 | -77.83978 | 38468 ft | 381 kts | 296° |
| 2026-05-05 21:00 | 25.18211 | -77.86674 | 37999 ft | 381 kts | 296° |
| 2026-05-05 21:00 | 25.19213 | -77.89372 | 37505 ft | 381 kts | 296° |
| 2026-05-05 21:01 | 25.20216 | -77.92074 | 37002 ft | 382 kts | 296° |
| 2026-05-05 21:01 | 25.21240 | -77.94832 | 36503 ft | 382 kts | 296° |
| 2026-05-05 21:01 | 25.22251 | -77.97559 | 35961 ft | 384 kts | 295° |
| 2026-05-05 21:01 | 25.23270 | -78.00311 | 35462 ft | 385 kts | 296° |
| 2026-05-05 21:02 | 25.24299 | -78.03089 | 34942 ft | 387 kts | 295° |
| 2026-05-05 21:02 | 25.25323 | -78.05854 | 34428 ft | 389 kts | 296° |
| 2026-05-05 21:02 | 25.26347 | -78.08625 | 33916 ft | 391 kts | 295° |
| 2026-05-05 21:02 | 25.27380 | -78.11420 | 33405 ft | 393 kts | 295° |
| 2026-05-05 21:03 | 25.28437 | -78.14283 | 32894 ft | 395 kts | 295° |
| 2026-05-05 21:03 | 25.29478 | -78.17103 | 32350 ft | 397 kts | 295° |
| 2026-05-05 21:03 | 25.30560 | -78.19934 | 31819 ft | 396 kts | 296° |
| 2026-05-05 21:03 | 25.31672 | -78.22708 | 31293 ft | 394 kts | 296° |
| 2026-05-05 21:04 | 25.32776 | -78.25462 | 30770 ft | 392 kts | 296° |
| 2026-05-05 21:04 | 25.33876 | -78.28208 | 30249 ft | 390 kts | 295° |
| 2026-05-05 21:04 | 25.34967 | -78.30934 | 29738 ft | 387 kts | 295° |
| 2026-05-05 21:04 | 25.36050 | -78.33642 | 29224 ft | 385 kts | 295° |
| 2026-05-05 21:05 | 25.37128 | -78.36337 | 28716 ft | 383 kts | 295° |
| 2026-05-05 21:05 | 25.38202 | -78.39024 | 28209 ft | 381 kts | 295° |
| 2026-05-05 21:05 | 25.39266 | -78.41689 | 27706 ft | 379 kts | 295° |
| 2026-05-05 21:05 | 25.40323 | -78.44338 | 27204 ft | 376 kts | 294° |
| 2026-05-05 21:06 | 25.41365 | -78.46977 | 26707 ft | 374 kts | 294° |
| 2026-05-05 21:06 | 25.42374 | -78.49599 | 26213 ft | 371 kts | 293° |
| 2026-05-05 21:06 | 25.43378 | -78.52212 | 25724 ft | 369 kts | 293° |
| 2026-05-05 21:06 | 25.44374 | -78.54808 | 25234 ft | 366 kts | 293° |
| 2026-05-05 21:07 | 25.45364 | -78.57386 | 24753 ft | 364 kts | 293° |
| 2026-05-05 21:07 | 25.46350 | -78.59955 | 24268 ft | 361 kts | 293° |
| 2026-05-05 21:07 | 25.47332 | -78.62517 | 23782 ft | 359 kts | 293° |
| 2026-05-05 21:07 | 25.48322 | -78.65101 | 23293 ft | 357 kts | 292° |
| 2026-05-05 21:08 | 25.49293 | -78.67634 | 22816 ft | 353 kts | 292° |
| 2026-05-05 21:08 | 25.50243 | -78.70116 | 22356 ft | 348 kts | 292° |
| 2026-05-05 21:08 | 25.51185 | -78.72579 | 21891 ft | 343 kts | 292° |
| 2026-05-05 21:08 | 25.52105 | -78.74984 | 21442 ft | 338 kts | 293° |
| 2026-05-05 21:09 | 25.53016 | -78.77369 | 20989 ft | 337 kts | 293° |
| 2026-05-05 21:09 | 25.53926 | -78.79749 | 20523 ft | 335 kts | 293° |
| 2026-05-05 21:09 | 25.54829 | -78.82115 | 20088 ft | 334 kts | 293° |
| 2026-05-05 21:09 | 25.55730 | -78.84472 | 19637 ft | 333 kts | 293° |
| 2026-05-05 21:10 | 25.56626 | -78.86823 | 19206 ft | 332 kts | 293° |
| 2026-05-05 21:10 | 25.57521 | -78.89170 | 18765 ft | 331 kts | 293° |
| 2026-05-05 21:10 | 25.58411 | -78.91507 | 18325 ft | 330 kts | 293° |
| 2026-05-05 21:10 | 25.59317 | -78.93888 | 17884 ft | 328 kts | 293° |
| 2026-05-05 21:11 | 25.60210 | -78.96236 | 17448 ft | 328 kts | 293° |
| 2026-05-05 21:11 | 25.61094 | -78.98561 | 17007 ft | 326 kts | 293° |
| 2026-05-05 21:11 | 25.61969 | -79.00863 | 16579 ft | 324 kts | 293° |
| 2026-05-05 21:11 | 25.62840 | -79.03156 | 16149 ft | 323 kts | 293° |
| 2026-05-05 21:12 | 25.63705 | -79.05445 | 15726 ft | 322 kts | 292° |
| 2026-05-05 21:12 | 25.64567 | -79.07741 | 15295 ft | 321 kts | 292° |
| 2026-05-05 21:12 | 25.65421 | -79.10013 | 14865 ft | 319 kts | 292° |
| 2026-05-05 21:12 | 25.66268 | -79.12270 | 14451 ft | 317 kts | 292° |
| 2026-05-05 21:13 | 25.67110 | -79.14515 | 14030 ft | 315 kts | 292° |
| 2026-05-05 21:13 | 25.67959 | -79.16780 | 13612 ft | 313 kts | 292° |
| 2026-05-05 21:13 | 25.68803 | -79.19034 | 13188 ft | 312 kts | 291° |
| 2026-05-05 21:13 | 25.69641 | -79.21267 | 12774 ft | 310 kts | 291° |
| 2026-05-05 21:14 | 25.70474 | -79.23489 | 12374 ft | 308 kts | 291° |
| 2026-05-05 21:14 | 25.71305 | -79.25708 | 11949 ft | 307 kts | 291° |
| 2026-05-05 21:14 | 25.72131 | -79.27909 | 11542 ft | 303 kts | 291° |
| 2026-05-05 21:14 | 25.72943 | -79.30084 | 11142 ft | 296 kts | 291° |
| 2026-05-05 21:15 | 25.73731 | -79.32225 | 10729 ft | 291 kts | 291° |
| 2026-05-05 21:15 | 25.74498 | -79.34313 | 10347 ft | 285 kts | 291° |
| 2026-05-05 21:15 | 25.75239 | -79.36329 | 9980 ft | 280 kts | 291° |
| 2026-05-05 21:15 | 25.75970 | -79.38316 | 9599 ft | 276 kts | 291° |
| 2026-05-05 21:16 | 25.76687 | -79.40272 | 9242 ft | 272 kts | 291° |
| 2026-05-05 21:16 | 25.77397 | -79.42210 | 8884 ft | 273 kts | 291° |
| 2026-05-05 21:16 | 25.78114 | -79.44162 | 8519 ft | 273 kts | 291° |
| 2026-05-05 21:16 | 25.78827 | -79.46110 | 8146 ft | 272 kts | 291° |
| 2026-05-05 21:17 | 25.79535 | -79.48043 | 7797 ft | 270 kts | 291° |
| 2026-05-05 21:17 | 25.80244 | -79.49980 | 7441 ft | 268 kts | 291° |
| 2026-05-05 21:17 | 25.80947 | -79.51901 | 7071 ft | 267 kts | 291° |
| 2026-05-05 21:17 | 25.81641 | -79.53800 | 6723 ft | 265 kts | 291° |
| 2026-05-05 21:18 | 25.82332 | -79.55692 | 6384 ft | 264 kts | 291° |
| 2026-05-05 21:18 | 25.83021 | -79.57578 | 6036 ft | 264 kts | 291° |
| 2026-05-05 21:18 | 25.83706 | -79.59458 | 5684 ft | 263 kts | 291° |
| 2026-05-05 21:18 | 25.84429 | -79.61312 | 5336 ft | 262 kts | 298° |
| 2026-05-05 21:19 | 25.85600 | -79.62853 | 5050 ft | 261 kts | 321° |
| 2026-05-05 21:19 | 25.87251 | -79.63751 | 4968 ft | 267 kts | 343° |
| 2026-05-05 21:19 | 25.89095 | -79.64136 | 4959 ft | 269 kts | 348° |
| 2026-05-05 21:19 | 25.90970 | -79.64486 | 4972 ft | 269 kts | 348° |
| 2026-05-05 21:20 | 25.92849 | -79.64841 | 4965 ft | 268 kts | 348° |
| 2026-05-05 21:20 | 25.94710 | -79.65191 | 4977 ft | 269 kts | 348° |
| 2026-05-05 21:20 | 25.96563 | -79.65540 | 4962 ft | 269 kts | 348° |
| 2026-05-05 21:20 | 25.98415 | -79.65889 | 4969 ft | 269 kts | 348° |
| 2026-05-05 21:21 | 26.00264 | -79.66238 | 4965 ft | 269 kts | 348° |
| 2026-05-05 21:21 | 26.02144 | -79.66591 | 4975 ft | 269 kts | 348° |
| 2026-05-05 21:21 | 26.04013 | -79.66942 | 4979 ft | 269 kts | 348° |
| 2026-05-05 21:21 | 26.05861 | -79.67290 | 4974 ft | 269 kts | 348° |
| 2026-05-05 21:22 | 26.07714 | -79.67638 | 4987 ft | 269 kts | 348° |
| 2026-05-05 21:22 | 26.09564 | -79.67987 | 4995 ft | 269 kts | 348° |
| 2026-05-05 21:22 | 26.11434 | -79.68338 | 4980 ft | 268 kts | 348° |
| 2026-05-05 21:22 | 26.13304 | -79.68690 | 4985 ft | 268 kts | 348° |
| 2026-05-05 21:23 | 26.15192 | -79.69044 | 4977 ft | 268 kts | 348° |
| 2026-05-05 21:23 | 26.17055 | -79.69393 | 4978 ft | 268 kts | 348° |
| 2026-05-05 21:23 | 26.18872 | -79.69845 | 4882 ft | 265 kts | 334° |
| 2026-05-05 21:23 | 26.20271 | -79.71160 | 4853 ft | 262 kts | 300° |
| 2026-05-05 21:24 | 26.20675 | -79.73133 | 4737 ft | 260 kts | 263° |
| 2026-05-05 21:24 | 26.20244 | -79.75128 | 4701 ft | 263 kts | 255° |
| 2026-05-05 21:24 | 26.19765 | -79.77111 | 4639 ft | 264 kts | 256° |
| 2026-05-05 21:24 | 26.19325 | -79.79103 | 4566 ft | 264 kts | 258° |
| 2026-05-05 21:25 | 26.18911 | -79.81092 | 4487 ft | 264 kts | 258° |
| 2026-05-05 21:25 | 26.18519 | -79.83091 | 4408 ft | 264 kts | 259° |
| 2026-05-05 21:25 | 26.18152 | -79.85134 | 4336 ft | 264 kts | 260° |
| 2026-05-05 21:25 | 26.17855 | -79.87185 | 4244 ft | 266 kts | 262° |
| 2026-05-05 21:26 | 26.17631 | -79.89242 | 4149 ft | 266 kts | 265° |
| 2026-05-05 21:26 | 26.17498 | -79.91298 | 4061 ft | 266 kts | 268° |
| 2026-05-05 21:26 | 26.17446 | -79.93351 | 3977 ft | 265 kts | 270° |
| 2026-05-05 21:26 | 26.17442 | -79.95409 | 3896 ft | 266 kts | 270° |
| 2026-05-05 21:27 | 26.17441 | -79.97475 | 3802 ft | 266 kts | 271° |
| 2026-05-05 21:27 | 26.17441 | -79.99530 | 3721 ft | 265 kts | 270° |
| 2026-05-05 21:27 | 26.17429 | -80.01604 | 3602 ft | 266 kts | 270° |
| 2026-05-05 21:27 | 26.17436 | -80.03661 | 3541 ft | 265 kts | 271° |
| 2026-05-05 21:28 | 26.17443 | -80.05718 | 3458 ft | 265 kts | 271° |
| 2026-05-05 21:28 | 26.17448 | -80.07776 | 3360 ft | 265 kts | 271° |
| 2026-05-05 21:28 | 26.17453 | -80.09830 | 3284 ft | 266 kts | 271° |
| 2026-05-05 21:28 | 26.17458 | -80.11899 | 3191 ft | 266 kts | 271° |
| 2026-05-05 21:29 | 26.17462 | -80.13963 | 3107 ft | 266 kts | 271° |
| 2026-05-05 21:29 | 26.17467 | -80.16023 | 3018 ft | 267 kts | 271° |
| 2026-05-05 21:29 | 26.17470 | -80.18045 | 2939 ft | 252 kts | 271° |
| 2026-05-05 21:29 | 26.17472 | -80.19950 | 2867 ft | 238 kts | 271° |
| 2026-05-05 21:30 | 26.17475 | -80.21789 | 2782 ft | 236 kts | 271° |
| 2026-05-05 21:30 | 26.17479 | -80.23618 | 2700 ft | 235 kts | 271° |
| 2026-05-05 21:30 | 26.17484 | -80.25459 | 2614 ft | 235 kts | 271° |
| 2026-05-05 21:30 | 26.17486 | -80.27277 | 2542 ft | 235 kts | 271° |
| 2026-05-05 21:31 | 26.17488 | -80.29097 | 2466 ft | 235 kts | 271° |
| 2026-05-05 21:31 | 26.17490 | -80.30933 | 2402 ft | 235 kts | 271° |
| 2026-05-05 21:31 | 26.17492 | -80.32758 | 2303 ft | 235 kts | 271° |
| 2026-05-05 21:31 | 26.17493 | -80.34549 | 2243 ft | 226 kts | 271° |
| 2026-05-05 21:32 | 26.17493 | -80.36270 | 2174 ft | 218 kts | 271° |
| 2026-05-05 21:32 | 26.17494 | -80.37951 | 2094 ft | 216 kts | 271° |
| 2026-05-05 21:32 | 26.17495 | -80.39625 | 2017 ft | 216 kts | 272° |
| 2026-05-05 21:32 | 26.17503 | -80.41293 | 1985 ft | 215 kts | 275° |
| 2026-05-05 21:33 | 26.17970 | -80.42843 | 1978 ft | 212 kts | 306° |
| 2026-05-05 21:33 | 26.18777 | -80.44119 | 1974 ft | 212 kts | 307° |
| 2026-05-05 21:33 | 26.19620 | -80.45462 | 1969 ft | 211 kts | 307° |
| 2026-05-05 21:33 | 26.20458 | -80.46803 | 1976 ft | 211 kts | 307° |
| 2026-05-05 21:34 | 26.21287 | -80.48156 | 1971 ft | 211 kts | 302° |
| 2026-05-05 21:34 | 26.21598 | -80.49740 | 1955 ft | 214 kts | 260° |
| 2026-05-05 21:34 | 26.20889 | -80.51185 | 1951 ft | 216 kts | 223° |
| 2026-05-05 21:34 | 26.19564 | -80.51941 | 1947 ft | 213 kts | 187° |
| 2026-05-05 21:35 | 26.18115 | -80.51744 | 1948 ft | 210 kts | 152° |
| 2026-05-05 21:35 | 26.17031 | -80.50705 | 1958 ft | 206 kts | 118° |
| 2026-05-05 21:35 | 26.16673 | -80.49196 | 1970 ft | 203 kts | 86° |
| 2026-05-05 21:35 | 26.16813 | -80.47631 | 1971 ft | 204 kts | 81° |
| 2026-05-05 21:36 | 26.16979 | -80.46060 | 1967 ft | 205 kts | 82° |
| 2026-05-05 21:36 | 26.17142 | -80.44467 | 1966 ft | 205 kts | 82° |
| 2026-05-05 21:36 | 26.17306 | -80.42891 | 1969 ft | 205 kts | 82° |
| 2026-05-05 21:36 | 26.17470 | -80.41315 | 1974 ft | 204 kts | 82° |
| 2026-05-05 21:37 | 26.17630 | -80.39753 | 1982 ft | 197 kts | 82° |
| 2026-05-05 21:37 | 26.17773 | -80.38290 | 1992 ft | 185 kts | 82° |
| 2026-05-05 21:37 | 26.17911 | -80.36864 | 1980 ft | 184 kts | 82° |
| 2026-05-05 21:37 | 26.18051 | -80.35438 | 1979 ft | 183 kts | 82° |
| 2026-05-05 21:38 | 26.18190 | -80.34029 | 1973 ft | 182 kts | 82° |
| 2026-05-05 21:38 | 26.18330 | -80.32628 | 1979 ft | 182 kts | 82° |
| 2026-05-05 21:38 | 26.18469 | -80.31224 | 1970 ft | 182 kts | 82° |
| 2026-05-05 21:38 | 26.18605 | -80.29838 | 1962 ft | 173 kts | 82° |
| 2026-05-05 21:39 | 26.18733 | -80.28520 | 1750 ft | 166 kts | 82° |
| 2026-05-05 21:39 | 26.18857 | -80.27260 | 1578 ft | 162 kts | 81° |
| 2026-05-05 21:39 | 26.18978 | -80.26043 | 1391 ft | 148 kts | 81° |
| 2026-05-05 21:39 | 26.19077 | -80.25001 | 1233 ft | 128 kts | 81° |
| 2026-05-05 21:40 | 26.19173 | -80.24020 | 1040 ft | 124 kts | 81° |
| 2026-05-05 21:40 | 26.19268 | -80.23077 | 895 ft | 120 kts | 81° |
| 2026-05-05 21:40 | 26.19364 | -80.22149 | 732 ft | 119 kts | 82° |
| 2026-05-05 21:40 | 26.19452 | -80.21233 | 596 ft | 119 kts | 83° |
| 2026-05-05 21:41 | 26.19550 | -80.20303 | 444 ft | 122 kts | 80° |
| 2026-05-05 21:41 | 26.19634 | -80.19405 | 285 ft | 112 kts | 81° |
| 2026-05-05 21:41 | 26.19716 | -80.18530 | 143 ft | 114 kts | 80° |
| 2026-05-05 21:41 | 26.19798 | -80.17666 | 15 ft | 103 kts | 82° |
| 2026-05-05 21:42 | 26.19862 | -80.17059 | 15 ft | 61 kts | 84° |
| 2026-05-05 21:42 | 26.19890 | -80.16728 | 14 ft | 28 kts | 84° |
| 2026-05-05 21:42 | 26.19912 | -80.16611 | 14 ft | 11 kts | 38° |
| 2026-05-05 21:42 | 26.19977 | -80.16607 | 14 ft | 7 kts | 355° |
| 2026-05-05 21:43 | 26.20017 | -80.16568 | 14 ft | 10 kts | 80° |
| 2026-05-05 21:43 | 26.20028 | -80.16471 | 14 ft | 14 kts | 83° |
| 2026-05-05 21:43 | 26.20039 | -80.16354 | 14 ft | 11 kts | 86° |
| 2026-05-05 21:43 | 26.20061 | -80.16272 | 14 ft | 11 kts | 38° |
| 2026-05-05 21:44 | 26.20119 | -80.16225 | 14 ft | 9 kts | 61° |
| 2026-05-05 21:44 | 26.20127 | -80.16137 | 14 ft | 13 kts | 88° |
| 2026-05-05 21:44 | 26.20129 | -80.16022 | 14 ft | 14 kts | 88° |
| 2026-05-05 21:44 | 26.20125 | -80.15962 | 14 ft | 4 kts | 123° |
| 2026-05-05 21:45 | 26.20113 | -80.15931 | 14 ft | 4 kts | 41° |
| 2026-05-05 21:45 | 26.20119 | -80.15929 | 14 ft | 0 kts | 359° |